Time;durP1;ratioP1;P1;durP2;ratioP2;P2;SDS_P1;SDS_P2;PMS_P1;PMS_P2;Temp;Humidity;BMP_temperature;BMP_pressure;BME280_temperature;BME280_humidity;BME280_pressure;Samples;Min_cycle;Max_cycle;Signal;HPM_P1;HPM_P2
2022/05/12 00:01:54;;;;;;;7.20;2.80;;;;;;;;;;5055648;28;20568;-68
2022/05/12 00:04:23;;;;;;;5.10;2.80;;;;;;;;;;5056271;28;20481;-68
2022/05/12 00:06:50;;;;;;;2.90;2.60;;;;;;;;;;5055965;28;20441;-68
2022/05/12 00:09:17;;;;;;;3.43;2.83;;;;;;;;;;5056069;28;20441;-68
2022/05/12 00:11:44;;;;;;;4.70;2.30;;;;;;;;;;5055492;28;20446;-68
2022/05/12 00:14:12;;;;;;;6.57;2.80;;;;;;;;;;5055522;28;20455;-68
2022/05/12 00:16:39;;;;;;;4.53;2.50;;;;;;;;;;5056191;28;20441;-68
2022/05/12 00:19:07;;;;;;;4.10;2.60;;;;;;;;;;5055717;28;20438;-69
2022/05/12 00:21:36;;;;;;;3.93;2.90;;;;;;;;;;5055323;28;20449;-70
2022/05/12 00:24:03;;;;;;;4.10;2.60;;;;;;;;;;5055260;28;20484;-69
2022/05/12 00:26:31;;;;;;;4.03;2.40;;;;;;;;;;5055509;28;20461;-70
2022/05/12 00:28:58;;;;;;;3.10;2.90;;;;;;;;;;5055292;28;20448;-69
2022/05/12 00:31:26;;;;;;;5.13;3.00;;;;;;;;;;5055452;28;20460;-69
2022/05/12 00:33:53;;;;;;;3.10;2.80;;;;;;;;;;5055423;28;20445;-69
2022/05/12 00:36:21;;;;;;;2.90;2.60;;;;;;;;;;5056004;28;20437;-70
2022/05/12 00:38:49;;;;;;;4.60;2.60;;;;;;;;;;5054982;28;20437;-70
2022/05/12 00:41:17;;;;;;;5.40;2.77;;;;;;;;;;5055348;28;20437;-71
2022/05/12 00:43:45;;;;;;;2.83;2.63;;;;;;;;;;5054890;28;20482;-70
2022/05/12 00:46:13;;;;;;;4.30;2.87;;;;;;;;;;5054951;28;20451;-70
2022/05/12 00:48:40;;;;;;;3.43;2.60;;;;;;;;;;5055217;28;20480;-70
2022/05/12 00:51:11;;;;;;;3.00;2.60;;;;;;;;;;5055311;28;20501;-71
2022/05/12 00:53:39;;;;;;;3.73;2.87;;;;;;;;;;5054324;28;20440;-70
2022/05/12 00:56:09;;;;;;;5.83;2.90;;;;;;;;;;5055140;28;20983;-70
2022/05/12 00:58:37;;;;;;;4.43;3.13;;;;;;;;;;5055174;28;20481;-71
2022/05/12 01:01:05;;;;;;;5.67;2.50;;;;;;;;;;5054860;28;20454;-70
2022/05/12 01:03:32;;;;;;;4.97;2.60;;;;;;;;;;5054978;28;20473;-70
2022/05/12 01:06:00;;;;;;;4.63;2.40;;;;;;;;;;5055269;28;20507;-71
2022/05/12 01:08:27;;;;;;;4.60;3.00;;;;;;;;;;5054446;28;20442;-71
2022/05/12 01:10:56;;;;;;;3.00;2.20;;;;;;;;;;5054761;28;20447;-72
2022/05/12 01:13:24;;;;;;;5.60;2.30;;;;;;;;;;5054298;28;21016;-71
2022/05/12 01:15:53;;;;;;;5.00;2.20;;;;;;;;;;5054398;28;20544;-72
2022/05/12 01:18:20;;;;;;;4.00;2.50;;;;;;;;;;5054629;28;20448;-71
2022/05/12 01:20:49;;;;;;;4.30;2.30;;;;;;;;;;5054307;28;20441;-71
2022/05/12 01:23:22;;;;;;;7.43;2.50;;;;;;;;;;5054017;28;20481;-71
2022/05/12 01:25:50;;;;;;;4.33;2.63;;;;;;;;;;5054273;28;20430;-71
2022/05/12 01:28:17;;;;;;;7.93;2.90;;;;;;;;;;5054771;28;20452;-71
2022/05/12 01:30:45;;;;;;;8.20;2.80;;;;;;;;;;5054411;28;20988;-71
2022/05/12 01:33:12;;;;;;;6.03;2.80;;;;;;;;;;5053964;28;20452;-71
2022/05/12 01:35:40;;;;;;;3.00;1.80;;;;;;;;;;5053963;28;20445;-71
2022/05/12 01:38:07;;;;;;;4.00;2.20;;;;;;;;;;5054105;28;20931;-70
2022/05/12 01:40:37;;;;;;;4.20;2.77;;;;;;;;;;5054678;28;20452;-70
2022/05/12 01:43:04;;;;;;;6.97;2.60;;;;;;;;;;5053654;28;20481;-71
2022/05/12 01:45:31;;;;;;;2.87;2.13;;;;;;;;;;5053807;28;20516;-71
2022/05/12 01:47:59;;;;;;;6.63;2.37;;;;;;;;;;5054318;28;20450;-71
2022/05/12 01:50:26;;;;;;;3.53;2.20;;;;;;;;;;5054073;28;20452;-71
2022/05/12 01:52:54;;;;;;;5.47;2.27;;;;;;;;;;5053589;28;20453;-72
2022/05/12 01:55:23;;;;;;;3.37;2.23;;;;;;;;;;5053998;28;20794;-71
2022/05/12 01:57:52;;;;;;;3.33;2.33;;;;;;;;;;5053824;28;20460;-71
2022/05/12 02:00:21;;;;;;;10.10;2.57;;;;;;;;;;5054147;28;20551;-72
2022/05/12 02:02:49;;;;;;;2.90;2.07;;;;;;;;;;5053893;28;20523;-72
2022/05/12 02:05:17;;;;;;;8.27;2.80;;;;;;;;;;5054099;28;20520;-71
2022/05/12 02:07:46;;;;;;;5.20;2.23;;;;;;;;;;5053492;28;20426;-71
2022/05/12 02:10:15;;;;;;;4.00;2.13;;;;;;;;;;5053790;28;20442;-71
2022/05/12 02:12:43;;;;;;;2.80;2.07;;;;;;;;;;5053631;28;20445;-71
2022/05/12 02:15:12;;;;;;;4.93;2.60;;;;;;;;;;5053403;28;20441;-71
2022/05/12 02:17:40;;;;;;;4.80;2.50;;;;;;;;;;5053733;28;20867;-71
2022/05/12 02:20:08;;;;;;;4.50;2.00;;;;;;;;;;5053231;28;20524;-71
2022/05/12 02:23:06;;;;;;;2.80;1.97;;;;;;;;;;5053265;28;20489;-72
2022/05/12 02:25:34;;;;;;;6.80;2.57;;;;;;;;;;5053267;28;20441;-72
2022/05/12 02:28:01;;;;;;;4.13;2.10;;;;;;;;;;5053475;28;20467;-71
2022/05/12 02:30:31;;;;;;;5.33;2.63;;;;;;;;;;5053067;28;20449;-71
2022/05/12 02:32:58;;;;;;;4.20;2.23;;;;;;;;;;5053584;28;20517;-72
2022/05/12 02:35:26;;;;;;;6.63;2.00;;;;;;;;;;5053469;28;20445;-72
2022/05/12 02:37:53;;;;;;;2.10;1.77;;;;;;;;;;5053285;28;20532;-72
2022/05/12 02:40:22;;;;;;;4.00;2.30;;;;;;;;;;5053383;28;20507;-72
2022/05/12 02:42:50;;;;;;;2.87;1.80;;;;;;;;;;5053286;28;20449;-71
2022/05/12 02:45:17;;;;;;;8.40;2.17;;;;;;;;;;5052968;28;20460;-71
2022/05/12 02:47:46;;;;;;;7.10;2.57;;;;;;;;;;5053323;28;20805;-72
2022/05/12 02:50:14;;;;;;;4.03;2.00;;;;;;;;;;5053270;28;20451;-71
2022/05/12 02:52:42;;;;;;;2.83;1.90;;;;;;;;;;5053561;28;20448;-72
2022/05/12 02:55:10;;;;;;;3.00;2.23;;;;;;;;;;5052895;28;20453;-72
2022/05/12 02:57:39;;;;;;;5.73;2.10;;;;;;;;;;5053251;28;20433;-72
2022/05/12 03:00:07;;;;;;;3.47;2.20;;;;;;;;;;5052908;28;20524;-71
2022/05/12 03:02:34;;;;;;;3.93;2.47;;;;;;;;;;5052891;28;20480;-72
2022/05/12 03:05:03;;;;;;;2.70;2.33;;;;;;;;;;5053006;28;20481;-72
2022/05/12 03:07:30;;;;;;;6.00;2.17;;;;;;;;;;5053144;28;20441;-72
2022/05/12 03:09:58;;;;;;;8.27;2.47;;;;;;;;;;5052780;28;20499;-71
2022/05/12 03:12:25;;;;;;;3.40;1.80;;;;;;;;;;5053132;28;20441;-71
2022/05/12 03:14:52;;;;;;;4.40;2.10;;;;;;;;;;5052674;28;20468;-71
2022/05/12 03:17:19;;;;;;;3.80;2.33;;;;;;;;;;5055684;28;20876;-71
2022/05/12 03:19:47;;;;;;;4.87;1.97;;;;;;;;;;5056823;28;20444;-72
2022/05/12 03:22:15;;;;;;;7.97;1.93;;;;;;;;;;5057241;28;20437;-72
2022/05/12 03:24:43;;;;;;;2.87;1.97;;;;;;;;;;5056664;28;20551;-71
2022/05/12 03:27:10;;;;;;;2.40;1.73;;;;;;;;;;5057130;28;20437;-72
2022/05/12 03:29:37;;;;;;;3.90;2.20;;;;;;;;;;5056410;28;20938;-72
2022/05/12 03:32:10;;;;;;;5.00;2.00;;;;;;;;;;5056868;28;20789;-72
2022/05/12 03:34:37;;;;;;;4.97;2.17;;;;;;;;;;5056582;28;20476;-72
2022/05/12 03:37:05;;;;;;;2.60;2.30;;;;;;;;;;5056590;28;20448;-71
2022/05/12 03:39:33;;;;;;;10.43;2.17;;;;;;;;;;5056631;28;20441;-71
2022/05/12 03:42:00;;;;;;;4.70;2.57;;;;;;;;;;5056458;28;20445;-71
2022/05/12 03:47:14;;;;;;;3.27;2.23;;;;;;;;;;5056236;28;20409;-66
2022/05/12 03:49:41;;;;;;;2.30;2.10;;;;;;;;;;5055995;28;20449;-66
2022/05/12 03:52:09;;;;;;;4.97;2.50;;;;;;;;;;5056359;28;20441;-66
2022/05/12 03:54:37;;;;;;;11.33;2.10;;;;;;;;;;5056127;28;20448;-66
2022/05/12 03:57:05;;;;;;;2.90;1.93;;;;;;;;;;5055929;28;20973;-66
2022/05/12 03:59:32;;;;;;;2.77;2.40;;;;;;;;;;5055761;28;20441;-66
2022/05/12 04:02:00;;;;;;;4.70;2.50;;;;;;;;;;5055296;28;20477;-66
2022/05/12 04:04:27;;;;;;;3.87;2.43;;;;;;;;;;5055590;28;20512;-66
2022/05/12 04:06:55;;;;;;;5.07;2.40;;;;;;;;;;5055742;28;20934;-66
2022/05/12 04:09:22;;;;;;;9.00;2.90;;;;;;;;;;5055913;28;20642;-66
2022/05/12 04:11:50;;;;;;;4.17;2.43;;;;;;;;;;5056183;28;20221;-66
2022/05/12 04:14:17;;;;;;;4.43;3.00;;;;;;;;;;5055493;28;20445;-66
2022/05/12 04:16:45;;;;;;;7.03;3.00;;;;;;;;;;5056211;28;20198;-66
2022/05/12 04:19:12;;;;;;;5.80;2.80;;;;;;;;;;5055703;28;20445;-66
2022/05/12 04:21:40;;;;;;;8.70;4.00;;;;;;;;;;5056029;28;20451;-66
2022/05/12 04:24:08;;;;;;;3.30;2.47;;;;;;;;;;5055668;28;20473;-66
2022/05/12 04:26:36;;;;;;;6.87;2.87;;;;;;;;;;5055522;28;20463;-66
2022/05/12 04:29:05;;;;;;;4.43;2.80;;;;;;;;;;5054499;28;20448;-66
2022/05/12 04:31:32;;;;;;;4.30;2.40;;;;;;;;;;5055428;28;20433;-66
2022/05/12 04:36:44;;;;;;;7.13;4.00;;;;;;;;;;5055257;28;20894;-65
2022/05/12 04:39:12;;;;;;;10.20;3.60;;;;;;;;;;5055675;28;20449;-66
2022/05/12 04:41:39;;;;;;;6.10;3.03;;;;;;;;;;5055348;28;20604;-65
2022/05/12 04:44:07;;;;;;;8.43;3.50;;;;;;;;;;5055242;28;20481;-65
2022/05/12 04:46:36;;;;;;;7.67;3.47;;;;;;;;;;5054894;28;20441;-65
2022/05/12 04:49:04;;;;;;;6.90;3.10;;;;;;;;;;5055563;28;20480;-65
2022/05/12 04:51:31;;;;;;;5.23;2.90;;;;;;;;;;5054800;28;20437;-66
2022/05/12 04:53:58;;;;;;;4.03;2.60;;;;;;;;;;5055150;28;20446;-66
2022/05/12 04:56:26;;;;;;;6.53;3.27;;;;;;;;;;5054971;28;20535;-65
2022/05/12 04:58:53;;;;;;;8.17;3.20;;;;;;;;;;5055339;28;20449;-65
2022/05/12 05:01:21;;;;;;;14.50;3.80;;;;;;;;;;5054776;28;20477;-65
2022/05/12 05:03:49;;;;;;;5.20;3.30;;;;;;;;;;5055098;28;20948;-66
2022/05/12 05:06:16;;;;;;;7.03;3.30;;;;;;;;;;5054456;28;20434;-66
2022/05/12 05:08:43;;;;;;;4.73;3.40;;;;;;;;;;5054661;28;20438;-66
2022/05/12 05:11:10;;;;;;;8.03;3.23;;;;;;;;;;5052871;28;20447;-66
2022/05/12 05:13:37;;;;;;;6.43;4.13;;;;;;;;;;5052828;28;20441;-65
2022/05/12 05:16:05;;;;;;;14.23;3.70;;;;;;;;;;5053342;28;20445;-70
2022/05/12 05:18:36;;;;;;;9.60;3.60;;;;;;;;;;5054148;28;20480;-67
2022/05/12 05:21:03;;;;;;;9.63;3.53;;;;;;;;;;5054478;28;20425;-66
2022/05/12 05:23:30;;;;;;;5.43;3.00;;;;;;;;;;5054579;28;20449;-66
2022/05/12 05:25:59;;;;;;;12.90;3.77;;;;;;;;;;5054075;28;20477;-66
2022/05/12 05:28:26;;;;;;;7.07;5.00;;;;;;;;;;5054122;28;20536;-67
2022/05/12 05:30:54;;;;;;;5.57;3.10;;;;;;;;;;5054194;28;20445;-66
2022/05/12 05:33:21;;;;;;;7.33;3.57;;;;;;;;;;5054402;28;20892;-66
2022/05/12 05:35:49;;;;;;;7.40;3.57;;;;;;;;;;5054170;28;20449;-66
2022/05/12 05:38:17;;;;;;;3.80;3.00;;;;;;;;;;5054201;28;20441;-67
2022/05/12 05:40:44;;;;;;;12.10;3.67;;;;;;;;;;5054322;28;20459;-66
2022/05/12 05:43:11;;;;;;;10.23;3.70;;;;;;;;;;5054129;28;20477;-66
2022/05/12 05:45:38;;;;;;;4.00;3.20;;;;;;;;;;5053859;28;20484;-67
2022/05/12 05:48:06;;;;;;;6.53;2.63;;;;;;;;;;5053794;28;20437;-66
2022/05/12 05:53:23;;;;;;;5.27;2.80;;;;;;;;;;5054138;28;20974;-66
2022/05/12 05:53:26;;;;;;;6.20;3.33;;;;;;;;;;5053998;28;20919;-67
2022/05/12 05:55:54;;;;;;;6.47;3.73;;;;;;;;;;5053672;28;20512;-66
2022/05/12 05:58:22;;;;;;;12.97;4.33;;;;;;;;;;5053658;28;20446;-66
2022/05/12 06:00:49;;;;;;;4.97;3.27;;;;;;;;;;5053629;28;20445;-66
2022/05/12 06:03:16;;;;;;;13.10;5.60;;;;;;;;;;5054316;28;20438;-66
2022/05/12 06:05:43;;;;;;;7.10;4.73;;;;;;;;;;5053406;28;20819;-66
2022/05/12 06:08:12;;;;;;;9.13;4.23;;;;;;;;;;5053792;28;20483;-66
2022/05/12 06:10:41;;;;;;;9.57;4.10;;;;;;;;;;5054061;28;20465;-65
2022/05/12 06:13:09;;;;;;;7.37;5.03;;;;;;;;;;5053398;28;20444;-66
2022/05/12 06:15:36;;;;;;;6.00;4.67;;;;;;;;;;5053338;28;20448;-66
2022/05/12 06:18:07;;;;;;;6.47;5.43;;;;;;;;;;5053483;28;20444;-66
2022/05/12 06:20:34;;;;;;;5.13;4.63;;;;;;;;;;5053753;28;20436;-67
2022/05/12 06:23:01;;;;;;;6.73;5.20;;;;;;;;;;5053569;28;20441;-67
2022/05/12 06:25:29;;;;;;;6.83;6.17;;;;;;;;;;5053627;28;20803;-66
2022/05/12 06:27:57;;;;;;;10.03;6.37;;;;;;;;;;5053522;28;20446;-66
2022/05/12 06:30:25;;;;;;;11.63;6.63;;;;;;;;;;5053075;28;20942;-66
2022/05/12 06:32:56;;;;;;;14.10;7.90;;;;;;;;;;5053123;28;20448;-66
2022/05/12 06:35:23;;;;;;;8.20;6.63;;;;;;;;;;5053483;28;20948;-67
2022/05/12 06:37:50;;;;;;;10.60;6.77;;;;;;;;;;5053485;28;20566;-66
2022/05/12 06:40:18;;;;;;;13.77;8.80;;;;;;;;;;5053458;28;20452;-66
2022/05/12 06:42:46;;;;;;;9.73;7.20;;;;;;;;;;5053269;28;20450;-66
2022/05/12 06:45:16;;;;;;;11.47;9.00;;;;;;;;;;5052824;28;20474;-66
2022/05/12 06:47:48;;;;;;;12.10;9.03;;;;;;;;;;5052948;28;20503;-66
2022/05/12 06:50:15;;;;;;;14.57;10.10;;;;;;;;;;5053338;28;20480;-66
2022/05/12 06:52:43;;;;;;;13.60;10.87;;;;;;;;;;5056466;28;20445;-66
2022/05/12 06:55:11;;;;;;;20.97;10.77;;;;;;;;;;5057319;28;20452;-67
2022/05/12 06:57:38;;;;;;;12.53;9.50;;;;;;;;;;5056871;28;20442;-66
2022/05/12 07:00:08;;;;;;;11.47;9.23;;;;;;;;;;5056985;28;20452;-67
2022/05/12 07:02:38;;;;;;;15.80;9.07;;;;;;;;;;5057121;28;20470;-67
2022/05/12 07:05:06;;;;;;;13.30;9.70;;;;;;;;;;5057229;28;20465;-66
2022/05/12 07:07:34;;;;;;;14.17;8.87;;;;;;;;;;5056731;28;20447;-67
2022/05/12 07:10:01;;;;;;;14.60;9.50;;;;;;;;;;5057033;28;20452;-66
2022/05/12 07:12:28;;;;;;;17.60;8.90;;;;;;;;;;5057309;28;20444;-66
2022/05/12 07:14:56;;;;;;;15.83;8.70;;;;;;;;;;5056882;28;20448;-67
2022/05/12 07:17:24;;;;;;;9.50;7.50;;;;;;;;;;5056678;28;20845;-66
2022/05/12 07:26:34;;;;;;;8.50;7.10;;;;;;;;;;5056872;28;20442;-66
2022/05/12 07:28:09;;;;;;;9.10;6.60;;;;;;;;;;5056505;28;20396;-66
2022/05/12 07:33:17;;;;;;;8.60;7.80;;;;;;;;;;5055412;28;20430;-66
2022/05/12 07:35:46;;;;;;;9.43;6.90;;;;;;;;;;5056252;28;20449;-66
2022/05/12 07:38:13;;;;;;;8.53;6.87;;;;;;;;;;5056098;28;20443;-66
2022/05/12 07:40:40;;;;;;;10.33;7.50;;;;;;;;;;5056844;28;20780;-66
2022/05/12 07:43:07;;;;;;;13.13;7.70;;;;;;;;;;5056417;28;20509;-66
2022/05/12 07:45:35;;;;;;;10.50;7.30;;;;;;;;;;5056250;28;20837;-66
2022/05/12 07:48:02;;;;;;;7.20;6.03;;;;;;;;;;5056317;28;20533;-66
2022/05/12 07:50:29;;;;;;;8.43;7.60;;;;;;;;;;5056362;28;20471;-66
2022/05/12 07:52:58;;;;;;;10.60;7.37;;;;;;;;;;5055919;28;20530;-66
2022/05/12 07:55:25;;;;;;;8.50;6.80;;;;;;;;;;5056282;28;20444;-66
2022/05/12 07:57:52;;;;;;;8.90;7.50;;;;;;;;;;5056094;28;20460;-66
2022/05/12 08:00:20;;;;;;;9.60;6.90;;;;;;;;;;5055958;28;20540;-66
2022/05/12 08:02:47;;;;;;;12.13;6.90;;;;;;;;;;5056049;28;20479;-66
2022/05/12 08:05:14;;;;;;;7.80;6.47;;;;;;;;;;5056015;28;20488;-66
2022/05/12 08:07:43;;;;;;;10.17;6.13;;;;;;;;;;5056347;28;20497;-67
2022/05/12 08:10:12;;;;;;;7.53;6.70;;;;;;;;;;5055317;28;20450;-67
2022/05/12 08:12:39;;;;;;;9.30;5.70;;;;;;;;;;5055720;28;20444;-67
2022/05/12 08:15:08;;;;;;;9.93;6.63;;;;;;;;;;5055695;28;20447;-67
2022/05/12 08:17:36;;;;;;;10.67;5.57;;;;;;;;;;5038287;28;20469;-67
2022/05/12 08:20:05;;;;;;;7.53;6.43;;;;;;;;;;5055738;28;20462;-66
2022/05/12 08:22:32;;;;;;;8.20;6.10;;;;;;;;;;5055645;28;20495;-66
2022/05/12 08:24:59;;;;;;;6.43;5.07;;;;;;;;;;5055653;28;20823;-67
2022/05/12 08:27:28;;;;;;;8.00;5.30;;;;;;;;;;5055576;28;20442;-67
2022/05/12 08:29:55;;;;;;;5.93;5.13;;;;;;;;;;5055598;28;20525;-67
2022/05/12 08:32:22;;;;;;;6.03;5.43;;;;;;;;;;5055218;28;20450;-66
2022/05/12 08:34:49;;;;;;;7.87;4.87;;;;;;;;;;5055100;28;20448;-67
2022/05/12 08:37:18;;;;;;;5.63;4.83;;;;;;;;;;5055118;28;20445;-66
2022/05/12 08:39:50;;;;;;;7.13;4.83;;;;;;;;;;5055308;28;20447;-66
2022/05/12 08:42:22;;;;;;;8.67;4.50;;;;;;;;;;5055876;28;20592;-66
2022/05/12 08:44:51;;;;;;;7.60;4.50;;;;;;;;;;5055199;28;20442;-66
2022/05/12 08:47:24;;;;;;;9.83;4.50;;;;;;;;;;5055319;28;20505;-67
2022/05/12 08:49:53;;;;;;;7.50;4.73;;;;;;;;;;5055207;28;20434;-66
2022/05/12 08:52:23;;;;;;;11.03;4.43;;;;;;;;;;5055880;28;20496;-66
2022/05/12 08:54:53;;;;;;;6.53;4.10;;;;;;;;;;5054931;28;20441;-66
2022/05/12 08:57:27;;;;;;;4.13;3.43;;;;;;;;;;5055147;28;20519;-67
2022/05/12 08:59:56;;;;;;;4.70;4.23;;;;;;;;;;5054704;28;20426;-67
2022/05/12 09:02:29;;;;;;;7.43;3.83;;;;;;;;;;5054697;28;20470;-67
2022/05/12 09:05:01;;;;;;;10.43;3.50;;;;;;;;;;5054535;28;20923;-68
2022/05/12 09:07:31;;;;;;;5.87;3.70;;;;;;;;;;5054929;28;20437;-67
2022/05/12 09:10:03;;;;;;;7.70;3.23;;;;;;;;;;5054289;28;20477;-67
2022/05/12 09:12:34;;;;;;;9.87;3.60;;;;;;;;;;5054522;28;20431;-67
2022/05/12 09:15:06;;;;;;;7.43;4.40;;;;;;;;;;5053896;28;20510;-67
2022/05/12 09:17:37;;;;;;;6.57;3.30;;;;;;;;;;5054649;28;20460;-66
2022/05/12 09:20:05;;;;;;;11.10;4.17;;;;;;;;;;5054371;28;20431;-66
2022/05/12 09:22:32;;;;;;;7.70;3.63;;;;;;;;;;5054594;28;20460;-66
2022/05/12 09:25:00;;;;;;;4.33;3.00;;;;;;;;;;5054125;28;20964;-67
2022/05/12 09:27:29;;;;;;;6.20;3.60;;;;;;;;;;5054514;28;20442;-67
2022/05/12 09:29:56;;;;;;;4.17;3.43;;;;;;;;;;5053995;28;20949;-66
2022/05/12 09:32:26;;;;;;;9.43;3.67;;;;;;;;;;5054117;28;20486;-66
2022/05/12 09:35:08;;;;;;;4.73;3.40;;;;;;;;;;5053907;28;20446;-66
2022/05/12 09:37:36;;;;;;;4.73;3.50;;;;;;;;;;5054635;28;20795;-67
2022/05/12 09:40:15;;;;;;;4.50;3.17;;;;;;;;;;5054326;28;20774;-67
2022/05/12 09:42:45;;;;;;;4.30;3.47;;;;;;;;;;5054556;28;20808;-68
2022/05/12 09:45:22;;;;;;;4.40;2.67;;;;;;;;;;5054213;28;20534;-67
2022/05/12 09:47:50;;;;;;;7.57;3.23;;;;;;;;;;5053871;28;20502;-67
2022/05/12 09:50:22;;;;;;;4.23;3.03;;;;;;;;;;5053651;28;20452;-67
2022/05/12 09:52:58;;;;;;;3.27;3.07;;;;;;;;;;5054355;28;20435;-67
2022/05/12 09:55:27;;;;;;;5.80;3.43;;;;;;;;;;5054089;28;20438;-66
2022/05/12 09:57:56;;;;;;;4.63;2.93;;;;;;;;;;5054082;28;20472;-67
2022/05/12 10:00:41;;;;;;;4.70;3.17;;;;;;;;;;5053651;28;20505;-66
2022/05/12 10:09:06;;;;;;;5.57;3.13;;;;;;;;;;5053772;28;20413;-67
2022/05/12 10:11:36;;;;;;;5.37;3.13;;;;;;;;;;5051658;28;20458;-66
2022/05/12 10:14:05;;;;;;;6.83;3.03;;;;;;;;;;5053814;28;20445;-67
2022/05/12 10:16:33;;;;;;;5.10;2.97;;;;;;;;;;5053708;28;20549;-67
2022/05/12 10:19:05;;;;;;;4.27;2.60;;;;;;;;;;5053529;28;20529;-67
2022/05/12 10:21:36;;;;;;;3.20;2.90;;;;;;;;;;5054076;28;20435;-67
2022/05/12 10:24:09;;;;;;;6.50;3.10;;;;;;;;;;5054164;28;20426;-67
2022/05/12 10:26:39;;;;;;;4.17;3.03;;;;;;;;;;5052478;28;21007;-67
2022/05/12 10:29:10;;;;;;;3.00;2.50;;;;;;;;;;5053331;28;20983;-67
2022/05/12 10:31:39;;;;;;;5.47;3.60;;;;;;;;;;5053341;28;20537;-67
2022/05/12 10:34:15;;;;;;;4.87;2.87;;;;;;;;;;5053400;28;20460;-66
2022/05/12 10:36:48;;;;;;;3.17;2.40;;;;;;;;;;5053468;28;20444;-67
2022/05/12 10:39:22;;;;;;;8.00;3.20;;;;;;;;;;5053108;28;20512;-67
2022/05/12 10:41:57;;;;;;;6.60;2.97;;;;;;;;;;5053469;28;20444;-67
2022/05/12 10:44:49;;;;;;;6.70;3.30;;;;;;;;;;5053884;28;20427;-67
2022/05/12 10:47:19;;;;;;;9.43;3.80;;;;;;;;;;5052991;28;20477;-67
2022/05/12 10:49:53;;;;;;;4.07;3.10;;;;;;;;;;5052975;28;20438;-67
2022/05/12 10:52:27;;;;;;;5.70;3.60;;;;;;;;;;5053003;28;20430;-67
2022/05/12 10:55:04;;;;;;;5.00;3.10;;;;;;;;;;5052935;28;20907;-67
2022/05/12 10:57:36;;;;;;;6.73;3.20;;;;;;;;;;5054047;28;20513;-66
2022/05/12 11:00:10;;;;;;;10.30;3.50;;;;;;;;;;5053124;28;20798;-67
2022/05/12 11:02:40;;;;;;;5.80;3.37;;;;;;;;;;5053270;28;20466;-67
2022/05/12 11:05:14;;;;;;;4.73;3.20;;;;;;;;;;5052728;28;20542;-66
2022/05/12 11:07:43;;;;;;;5.97;3.13;;;;;;;;;;5053086;28;20465;-67
2022/05/12 11:10:15;;;;;;;5.83;3.37;;;;;;;;;;5052987;28;20436;-66
2022/05/12 11:12:45;;;;;;;6.07;3.47;;;;;;;;;;5053517;28;20427;-66
2022/05/12 11:15:15;;;;;;;6.63;3.90;;;;;;;;;;5052953;28;20436;-66
2022/05/12 11:17:43;;;;;;;4.50;3.10;;;;;;;;;;5053111;28;20438;-65
2022/05/12 11:20:18;;;;;;;5.57;2.33;;;;;;;;;;5052855;28;20489;-69
2022/05/12 11:22:49;;;;;;;4.53;2.40;;;;;;;;;;5052706;28;20522;-70
2022/05/12 11:25:18;;;;;;;3.23;2.70;;;;;;;;;;5052945;28;20968;-69
2022/05/12 11:27:50;;;;;;;5.13;2.73;;;;;;;;;;5053057;28;20483;-70
2022/05/12 11:30:31;;;;;;;5.13;2.87;;;;;;;;;;5053464;28;20801;-69
2022/05/12 11:33:03;;;;;;;7.83;3.60;;;;;;;;;;5052008;28;20450;-69
2022/05/12 11:35:32;;;;;;;5.03;3.30;;;;;;;;;;5052931;28;20447;-70
2022/05/12 11:38:01;;;;;;;3.27;2.97;;;;;;;;;;5054873;28;20450;-70
2022/05/12 11:40:48;;;;;;;5.77;2.87;;;;;;;;;;5056463;28;20537;-69
2022/05/12 11:46:20;;;;;;;6.93;3.50;;;;;;;;;;5056158;28;20508;-69
2022/05/12 11:48:52;;;;;;;5.80;3.33;;;;;;;;;;5056409;28;20444;-69
2022/05/12 11:51:25;;;;;;;3.80;3.40;;;;;;;;;;5056437;28;20461;-69
2022/05/12 11:53:55;;;;;;;3.40;3.10;;;;;;;;;;5055974;28;20432;-69
2022/05/12 11:56:43;;;;;;;7.13;3.67;;;;;;;;;;5056660;28;20439;-69
2022/05/12 11:59:16;;;;;;;4.70;3.20;;;;;;;;;;5049905;28;20462;-69
2022/05/12 12:01:50;;;;;;;5.20;3.37;;;;;;;;;;5055737;28;20542;-69
2022/05/12 12:04:37;;;;;;;5.97;3.10;;;;;;;;;;5056526;28;20526;-69
2022/05/12 12:07:07;;;;;;;5.00;2.80;;;;;;;;;;5055373;28;20481;-69
2022/05/12 12:09:52;;;;;;;6.63;2.90;;;;;;;;;;5056055;28;20882;-70
2022/05/12 12:12:38;;;;;;;5.57;2.87;;;;;;;;;;5055818;28;20428;-69
2022/05/12 12:15:06;;;;;;;7.17;3.83;;;;;;;;;;5055910;28;20440;-70
2022/05/12 12:17:35;;;;;;;3.20;2.90;;;;;;;;;;5055382;28;20546;-70
2022/05/12 12:20:07;;;;;;;5.57;3.03;;;;;;;;;;5055482;28;20456;-70
2022/05/12 12:22:44;;;;;;;5.20;2.90;;;;;;;;;;5055425;28;20447;-69
2022/05/12 12:25:25;;;;;;;4.73;2.70;;;;;;;;;;5055317;28;20437;-70
2022/05/12 12:28:08;;;;;;;4.93;3.83;;;;;;;;;;5055479;28;20476;-70
2022/05/12 12:30:52;;;;;;;4.10;3.27;;;;;;;;;;5039184;28;20559;-69
2022/05/12 12:33:22;;;;;;;4.07;3.27;;;;;;;;;;5042628;28;20440;-70
2022/05/12 12:35:54;;;;;;;4.20;2.90;;;;;;;;;;5055681;28;20782;-69
2022/05/12 12:38:40;;;;;;;6.30;3.20;;;;;;;;;;5055750;28;20443;-69
2022/05/12 12:41:10;;;;;;;4.33;2.97;;;;;;;;;;5054702;28;20449;-69
2022/05/12 12:43:38;;;;;;;8.70;3.33;;;;;;;;;;5055278;28;20439;-70
2022/05/12 12:46:17;;;;;;;4.77;3.43;;;;;;;;;;5055007;28;20436;-70
2022/05/12 12:48:48;;;;;;;4.33;3.20;;;;;;;;;;5054183;28;20406;-69
2022/05/12 12:51:27;;;;;;;4.30;3.40;;;;;;;;;;5055672;28;20437;-69
2022/05/12 12:56:42;;;;;;;5.60;3.47;;;;;;;;;;5054936;28;20416;-70
2022/05/12 12:59:14;;;;;;;4.47;3.83;;;;;;;;;;5054820;28;20436;-70
2022/05/12 13:01:47;;;;;;;6.10;3.57;;;;;;;;;;5054589;28;20475;-70
2022/05/12 13:04:15;;;;;;;5.17;3.50;;;;;;;;;;5055264;28;20430;-69
2022/05/12 13:06:42;;;;;;;6.20;4.90;;;;;;;;;;5054448;28;20580;-69
2022/05/12 13:09:11;;;;;;;6.50;4.87;;;;;;;;;;5054818;28;20449;-69
2022/05/12 13:11:39;;;;;;;5.57;4.40;;;;;;;;;;5054577;28;20447;-70
2022/05/12 13:14:09;;;;;;;6.83;5.90;;;;;;;;;;5054653;28;20437;-70
2022/05/12 13:16:38;;;;;;;6.27;4.93;;;;;;;;;;5055040;28;20445;-70
2022/05/12 13:19:06;;;;;;;4.63;4.23;;;;;;;;;;5054774;28;20475;-70
2022/05/12 13:21:36;;;;;;;5.40;4.27;;;;;;;;;;5047570;28;20441;-70
2022/05/12 13:24:06;;;;;;;5.73;5.10;;;;;;;;;;5042208;28;20418;-69
2022/05/12 13:26:34;;;;;;;5.90;4.97;;;;;;;;;;5049765;28;20500;-70
2022/05/12 13:29:03;;;;;;;5.03;4.63;;;;;;;;;;5054175;28;20886;-70
2022/05/12 13:31:36;;;;;;;6.37;5.80;;;;;;;;;;5053956;28;20540;-70
2022/05/12 13:34:22;;;;;;;7.97;6.20;;;;;;;;;;5054662;28;20436;-70
2022/05/12 13:36:53;;;;;;;8.30;5.57;;;;;;;;;;5054272;28;20783;-69
2022/05/12 13:39:39;;;;;;;7.23;5.50;;;;;;;;;;5054547;28;20766;-69
2022/05/12 13:42:08;;;;;;;8.70;5.73;;;;;;;;;;5054446;28;20451;-70
2022/05/12 13:44:36;;;;;;;7.97;5.20;;;;;;;;;;5054248;28;20480;-69
2022/05/12 13:47:07;;;;;;;6.17;4.10;;;;;;;;;;5054000;28;20476;-70
2022/05/12 13:49:36;;;;;;;5.57;4.70;;;;;;;;;;5054222;28;20448;-70
2022/05/12 13:52:18;;;;;;;6.03;4.40;;;;;;;;;;5054060;28;20437;-70
2022/05/12 13:55:02;;;;;;;5.70;4.20;;;;;;;;;;5052123;28;20452;-70
2022/05/12 13:57:31;;;;;;;6.20;4.30;;;;;;;;;;5053970;28;20512;-70
2022/05/12 13:59:59;;;;;;;7.00;4.77;;;;;;;;;;5053381;28;20457;-70
2022/05/12 14:02:31;;;;;;;5.57;5.00;;;;;;;;;;5052965;28;20564;-70
2022/05/12 14:05:01;;;;;;;8.50;4.90;;;;;;;;;;5054059;28;20432;-70
2022/05/12 14:07:30;;;;;;;6.77;5.30;;;;;;;;;;5053506;28;20471;-70
2022/05/12 14:09:59;;;;;;;6.37;5.67;;;;;;;;;;5053849;28;20439;-70
2022/05/12 14:12:28;;;;;;;6.87;4.53;;;;;;;;;;5053640;28;20483;-70
2022/05/12 14:20:28;;;;;;;5.20;4.70;;;;;;;;;;5053554;28;20479;-70
2022/05/12 14:22:56;;;;;;;12.03;6.30;;;;;;;;;;5053126;28;20435;-70
2022/05/12 14:25:25;;;;;;;8.37;5.43;;;;;;;;;;5053575;28;20795;-69
2022/05/12 14:27:52;;;;;;;5.60;4.93;;;;;;;;;;5053056;28;20491;-70
2022/05/12 14:30:20;;;;;;;4.87;4.30;;;;;;;;;;5053443;28;20452;-69
2022/05/12 14:32:50;;;;;;;6.03;5.43;;;;;;;;;;5052981;28;20456;-70
2022/05/12 14:35:19;;;;;;;8.40;6.07;;;;;;;;;;5053046;28;20536;-69
2022/05/12 14:37:49;;;;;;;7.80;5.37;;;;;;;;;;5053426;28;20449;-69
2022/05/12 14:40:17;;;;;;;9.13;4.97;;;;;;;;;;5053063;28;20437;-69
2022/05/12 14:42:44;;;;;;;7.77;5.60;;;;;;;;;;5053224;28;20445;-69
2022/05/12 14:45:12;;;;;;;6.07;5.47;;;;;;;;;;5052988;28;20445;-69
2022/05/12 14:47:39;;;;;;;5.53;4.90;;;;;;;;;;5052880;28;20483;-69
2022/05/12 14:50:09;;;;;;;7.83;6.20;;;;;;;;;;5052990;28;20455;-69
2022/05/12 14:52:36;;;;;;;7.30;6.60;;;;;;;;;;5052991;28;20488;-70
2022/05/12 14:55:03;;;;;;;6.27;5.47;;;;;;;;;;5053105;28;20448;-69
2022/05/12 14:57:30;;;;;;;7.30;5.50;;;;;;;;;;5053120;28;20487;-70
2022/05/12 14:59:57;;;;;;;4.50;4.10;;;;;;;;;;5052722;28;20523;-69
2022/05/12 15:02:27;;;;;;;5.30;3.97;;;;;;;;;;5053411;28;20477;-70
2022/05/12 15:04:54;;;;;;;5.60;4.00;;;;;;;;;;5052738;28;20469;-70
2022/05/12 15:07:23;;;;;;;15.57;4.93;;;;;;;;;;5052929;28;20480;-69
2022/05/12 15:09:51;;;;;;;5.53;3.90;;;;;;;;;;5052602;28;20452;-70
2022/05/12 15:12:18;;;;;;;8.10;5.00;;;;;;;;;;5053768;28;20445;-70
2022/05/12 15:14:46;;;;;;;7.90;4.10;;;;;;;;;;5056904;28;20445;-70
2022/05/12 15:17:13;;;;;;;7.17;4.53;;;;;;;;;;5056628;28;20487;-69
2022/05/12 15:19:40;;;;;;;5.47;4.70;;;;;;;;;;5056809;28;20433;-69
2022/05/12 15:22:07;;;;;;;5.67;4.67;;;;;;;;;;5056497;28;20812;-69
2022/05/12 15:24:36;;;;;;;7.80;5.00;;;;;;;;;;5056411;28;20956;-69
2022/05/12 15:27:06;;;;;;;7.87;5.50;;;;;;;;;;5056374;28;20447;-70